LKVL weather

Vlašim Airfield
Vlašim, Central Bohemian Region, Czechia

Public forecast

Using degrees Celsius for public forecast. Weather courtesy of forecast.io.

METAR (pilot weather report)

Closest report is Čáslav Air Base, 23.2 nm (43.0 km) ENE. Retrieved 2019/07/21 03:00 UTC (26 minutes ago):

LKCV 210300Z 23006KT CAVOK 19/16 Q1016 NOSIG RMK BLU BLU

TAF (pilot weather forecast)

Closest forecast is Čáslav Air Base, 23.2 nm (43.0 km) ENE. Retrieved 2019/07/21 00:00 UTC (3 hours ago):

TAF LKCV 202300Z 2100/2200 23007KT CAVOK TEMPO 2100/2108 25016G30KT 6000 SHRA BKN030TCU PROB40 TEMPO 2100/2104 27020G38KT 3000 TSRA BKN020CB BECMG 2102/2104 26012KT 9999 BKN030 TEMPO 2108/2116 6000 TSRA SCT012 BKN022CB BECMG 2119/2121 VRB02KT CAVOK